createdAt,value
2018-12-25T00:02:16.126Z,4.97
2018-12-25T00:04:45.417Z,4.90
2018-12-25T00:07:14.774Z,4.81
2018-12-25T00:09:45.016Z,4.86
2018-12-25T00:12:14.352Z,4.91
2018-12-25T00:14:46.758Z,4.83
2018-12-25T00:17:16.367Z,4.88
2018-12-25T00:19:47.543Z,4.85
2018-12-25T00:22:16.963Z,4.83
2018-12-25T00:24:55.846Z,4.88
2018-12-25T00:27:25.196Z,4.85
2018-12-25T00:29:54.937Z,4.80
2018-12-25T00:32:24.484Z,4.73
2018-12-25T00:34:54.013Z,4.73
2018-12-25T00:37:23.568Z,4.79
2018-12-25T00:40:24.254Z,4.80
2018-12-25T00:42:53.957Z,4.81
2018-12-25T00:45:23.307Z,4.77
2018-12-25T00:47:55.462Z,4.77
2018-12-25T00:50:25.190Z,4.78
2018-12-25T00:53:00.604Z,4.78
2018-12-25T00:55:29.918Z,4.73
2018-12-25T00:58:02.836Z,4.73
2018-12-25T01:00:32.172Z,4.74
2018-12-25T01:03:04.143Z,4.75
2018-12-25T01:05:33.438Z,4.72
2018-12-25T01:08:04.690Z,4.66
2018-12-25T01:10:43.118Z,4.69
2018-12-25T01:13:12.496Z,4.69
2018-12-25T01:15:41.795Z,4.71
2018-12-25T01:18:14.423Z,4.65
2018-12-25T01:20:43.786Z,4.67
2018-12-25T01:23:13.104Z,4.60
2018-12-25T01:25:42.849Z,4.60
2018-12-25T01:28:12.358Z,4.64
2018-12-25T01:30:41.648Z,4.62
2018-12-25T01:33:11.243Z,4.58
2018-12-25T01:35:40.594Z,4.57
2018-12-25T01:38:09.924Z,4.55
2018-12-25T01:40:39.687Z,4.54
2018-12-25T01:43:09.014Z,4.54
2018-12-25T01:45:38.428Z,4.54
2018-12-25T01:48:08.188Z,4.46
2018-12-25T01:50:37.520Z,4.42
2018-12-25T01:53:06.825Z,4.34
2018-12-25T01:55:36.499Z,4.39
2018-12-25T01:58:08.712Z,4.38
2018-12-25T02:00:38.082Z,4.36
2018-12-25T02:03:10.805Z,4.35
2018-12-25T02:05:40.112Z,4.34
2018-12-25T02:08:09.396Z,4.37
2018-12-25T02:10:39.965Z,4.33
2018-12-25T02:13:10.562Z,4.34
2018-12-25T02:15:39.845Z,4.33
2018-12-25T02:18:16.945Z,4.33
2018-12-25T02:20:46.245Z,4.33
2018-12-25T02:23:15.855Z,4.31
2018-12-25T02:25:45.259Z,4.29
2018-12-25T02:28:16.695Z,4.25
2018-12-25T02:30:46.250Z,4.24
2018-12-25T02:33:21.474Z,4.24
2018-12-25T02:35:51.856Z,4.23
2018-12-25T02:38:24.231Z,4.25
2018-12-25T02:40:53.791Z,4.22
2018-12-25T02:43:23.689Z,4.18
2018-12-25T02:45:52.992Z,4.20
2018-12-25T02:48:22.575Z,4.21
2018-12-25T02:50:52.175Z,4.21
2018-12-25T02:53:21.496Z,4.15
2018-12-25T02:55:50.865Z,4.11
2018-12-25T02:58:22.079Z,4.07
2018-12-25T03:00:51.430Z,4.05
2018-12-25T03:03:23.955Z,4.12
2018-12-25T03:05:54.075Z,4.03
2018-12-25T03:08:23.428Z,4.01
2018-12-25T03:10:52.898Z,4.04
2018-12-25T03:13:26.511Z,4.04
2018-12-25T03:15:55.869Z,3.96
2018-12-25T03:18:28.900Z,3.96
2018-12-25T03:26:09.968Z,3.97
2018-12-25T03:28:39.306Z,3.92
2018-12-25T03:31:12.687Z,3.92
2018-12-25T03:33:42.093Z,3.86
2018-12-25T03:36:11.419Z,3.88
2018-12-25T03:38:40.782Z,3.82
2018-12-25T03:41:10.131Z,3.71
2018-12-25T03:43:46.966Z,3.70
2018-12-25T03:46:12.321Z,3.72
2018-12-25T03:48:49.129Z,3.72
2018-12-25T03:51:21.071Z,3.74
2018-12-25T03:53:50.600Z,3.74
2018-12-25T03:56:20.737Z,3.74
2018-12-25T03:58:50.165Z,3.69
2018-12-25T04:01:26.111Z,3.76
2018-12-25T04:03:56.394Z,3.69
2018-12-25T04:06:25.841Z,3.66
2018-12-25T04:08:58.419Z,3.68
2018-12-25T04:11:28.263Z,3.63
2018-12-25T04:13:57.674Z,3.64
2018-12-25T04:16:27.389Z,3.62
2018-12-25T04:18:57.307Z,3.50
2018-12-25T04:21:26.794Z,3.54
2018-12-25T04:23:56.110Z,3.54
2018-12-25T04:26:25.415Z,3.50
2018-12-25T04:28:54.781Z,3.49
2018-12-25T04:31:25.804Z,3.49
2018-12-25T04:33:55.208Z,3.43
2018-12-25T04:36:24.740Z,3.43
2018-12-25T04:39:00.191Z,3.48
2018-12-25T04:41:29.493Z,3.48
2018-12-25T04:43:59.108Z,3.45
2018-12-25T04:46:28.457Z,3.45
2018-12-25T04:49:05.029Z,3.45
2018-12-25T04:51:35.722Z,3.45
2018-12-25T04:54:07.798Z,3.32
2018-12-25T04:56:44.502Z,3.39
2018-12-25T04:59:13.919Z,3.39
2018-12-25T05:01:46.028Z,3.45
2018-12-25T05:04:15.665Z,3.48
2018-12-25T05:06:44.964Z,3.49
2018-12-25T05:09:14.265Z,3.45
2018-12-25T05:11:43.926Z,3.48
2018-12-25T05:14:13.225Z,3.46
2018-12-25T05:16:42.583Z,3.47
2018-12-25T05:19:12.255Z,3.45
2018-12-25T05:21:41.616Z,3.43
2018-12-25T05:24:11.228Z,3.42
2018-12-25T05:26:41.120Z,3.39
2018-12-25T05:29:10.628Z,3.39
2018-12-25T05:31:39.991Z,3.29
2018-12-25T05:34:11.005Z,3.37
2018-12-25T05:36:40.267Z,3.37
2018-12-25T05:39:09.584Z,3.38
2018-12-25T05:41:42.285Z,3.29
2018-12-25T05:44:11.592Z,3.29
2018-12-25T05:46:43.974Z,3.31
2018-12-25T05:49:13.626Z,3.31
2018-12-25T05:51:42.921Z,3.31
2018-12-25T05:54:12.213Z,3.25
2018-12-25T05:56:41.918Z,3.26
2018-12-25T05:59:11.243Z,3.25
2018-12-25T06:01:40.534Z,3.25
2018-12-25T06:04:14.472Z,3.24
2018-12-25T06:06:43.808Z,3.23
2018-12-25T06:09:13.121Z,3.23
2018-12-25T06:11:42.848Z,3.10
2018-12-25T06:14:12.648Z,3.10
2018-12-25T06:16:42.592Z,3.07
2018-12-25T06:19:18.124Z,3.19
2018-12-25T06:21:47.576Z,3.19
2018-12-25T06:24:16.898Z,3.19
2018-12-25T06:26:46.489Z,3.24
2018-12-25T06:29:19.003Z,3.24
2018-12-25T06:31:49.152Z,3.28
2018-12-25T06:34:25.921Z,3.28
2018-12-25T06:37:02.427Z,3.28
2018-12-25T06:39:32.101Z,3.22
2018-12-25T06:42:10.418Z,3.17
2018-12-25T06:44:42.180Z,3.17
2018-12-25T06:47:11.490Z,3.17
2018-12-25T06:49:40.808Z,3.21
2018-12-25T06:52:10.575Z,3.22
2018-12-25T06:54:39.926Z,3.22
2018-12-25T06:57:09.270Z,3.18
2018-12-25T06:59:38.989Z,3.12
2018-12-25T07:02:08.301Z,3.16
2018-12-25T07:04:40.461Z,3.17
2018-12-25T07:07:10.135Z,3.18
2018-12-25T07:09:39.467Z,3.18
2018-12-25T07:12:26.593Z,3.19
2018-12-25T07:14:56.244Z,3.17
2018-12-25T07:17:25.567Z,3.17
2018-12-25T07:19:59.358Z,3.16
2018-12-25T07:22:26.422Z,3.16
2018-12-25T07:25:01.797Z,3.16
2018-12-25T07:27:31.172Z,3.16
2018-12-25T07:30:00.522Z,3.07
2018-12-25T07:32:29.918Z,3.07
2018-12-25T07:34:59.553Z,3.14
2018-12-25T07:37:28.904Z,3.13
2018-12-25T07:39:58.393Z,3.14
2018-12-25T07:42:28.029Z,3.14
2018-12-25T07:45:03.612Z,3.11
2018-12-25T07:47:33.215Z,3.07
2018-12-25T07:50:06.602Z,3.08
2018-12-25T07:52:43.030Z,3.13
2018-12-25T07:55:12.695Z,3.02
2018-12-25T07:57:42.048Z,3.02
2018-12-25T08:00:11.345Z,3.07
2018-12-25T08:02:41.031Z,3.09
2018-12-25T08:05:10.360Z,3.13
2018-12-25T08:07:39.704Z,3.13
2018-12-25T08:10:09.362Z,3.13
2018-12-25T08:12:47.448Z,3.14
2018-12-25T08:15:16.857Z,3.14
2018-12-25T08:17:46.181Z,3.13
2018-12-25T08:20:15.487Z,3.17
2018-12-25T08:22:46.318Z,3.21
2018-12-25T08:25:15.605Z,3.30
2018-12-25T08:27:46.220Z,3.24
2018-12-25T08:30:16.883Z,3.27
2018-12-25T08:32:46.178Z,3.20
2018-12-25T08:35:15.463Z,3.18
2018-12-25T08:37:45.538Z,3.23
2018-12-25T08:40:22.063Z,3.22
2018-12-25T08:42:51.737Z,3.22
2018-12-25T08:45:23.934Z,3.22
2018-12-25T08:47:53.271Z,3.28
2018-12-25T08:50:28.717Z,3.28
2018-12-25T08:52:58.095Z,3.31
2018-12-25T08:55:27.698Z,3.31
2018-12-25T08:57:57.380Z,3.30
2018-12-25T09:00:26.678Z,3.37
2018-12-25T09:02:57.297Z,3.35
2018-12-25T09:05:33.895Z,3.41
2018-12-25T09:08:06.270Z,3.41
2018-12-25T09:10:35.661Z,3.49
2018-12-25T09:13:08.376Z,3.53
2018-12-25T09:15:37.692Z,3.55
2018-12-25T09:18:07.081Z,3.49
2018-12-25T09:20:36.765Z,3.57
2018-12-25T09:23:06.103Z,3.57
2018-12-25T09:25:35.536Z,3.75
2018-12-25T09:28:10.004Z,3.75
2018-12-25T09:30:39.357Z,3.68
2018-12-25T09:33:08.971Z,3.69
2018-12-25T09:35:38.311Z,3.60
2018-12-25T09:38:07.739Z,3.79
2018-12-25T09:40:37.369Z,3.76
2018-12-25T09:43:06.702Z,3.78
2018-12-25T09:45:50.207Z,3.95
2018-12-25T09:48:13.256Z,4.12
2018-12-25T09:50:41.035Z,4.19
2018-12-25T09:53:10.627Z,4.15
2018-12-25T09:55:40.030Z,4.10
2018-12-25T09:58:09.349Z,4.22
2018-12-25T10:00:41.877Z,4.46
2018-12-25T10:03:20.202Z,4.68
2018-12-25T10:05:49.558Z,5.11
2018-12-25T10:08:25.271Z,5.34
2018-12-25T10:10:54.666Z,5.52
2018-12-25T10:13:26.947Z,5.98
2018-12-25T10:15:56.586Z,6.07
2018-12-25T10:18:26.113Z,6.14
2018-12-25T10:20:55.464Z,6.34
2018-12-25T10:23:27.829Z,6.40
2018-12-25T10:25:57.221Z,6.54
2018-12-25T10:28:26.657Z,6.58
2018-12-25T10:30:56.230Z,6.52
2018-12-25T10:33:28.460Z,6.52
2018-12-25T10:35:57.761Z,6.51
2018-12-25T10:38:27.485Z,6.43
2018-12-25T10:40:56.826Z,6.43
2018-12-25T10:43:26.165Z,6.47
2018-12-25T10:45:55.875Z,6.45
2018-12-25T10:48:25.262Z,6.35
2018-12-25T10:50:54.592Z,6.23
2018-12-25T10:53:24.354Z,6.19
2018-12-25T10:55:53.791Z,6.26
2018-12-25T10:58:23.163Z,6.16
2018-12-25T11:00:56.998Z,6.21
2018-12-25T11:03:32.308Z,6.23
2018-12-25T11:06:06.090Z,6.00
2018-12-25T11:08:35.481Z,6.07
2018-12-25T11:11:05.229Z,6.28
2018-12-25T11:13:37.400Z,6.12
2018-12-25T11:16:06.795Z,6.09
2018-12-25T11:18:49.115Z,6.04
2018-12-25T11:21:14.278Z,6.30
2018-12-25T11:23:44.893Z,6.41
2018-12-25T11:26:14.443Z,6.28
2018-12-25T11:28:43.925Z,6.39
2018-12-25T11:31:18.036Z,6.51
2018-12-25T11:33:47.405Z,6.43
2018-12-25T11:36:16.748Z,6.57
2018-12-25T11:38:46.410Z,6.65
2018-12-25T11:41:15.738Z,6.64
2018-12-25T11:43:45.088Z,6.58
2018-12-25T11:46:14.738Z,6.67
2018-12-25T11:48:44.040Z,6.75
2018-12-25T11:51:13.366Z,6.70
2018-12-25T11:53:48.775Z,6.79
2018-12-25T11:56:18.130Z,6.81
2018-12-25T11:58:50.324Z,6.89
2018-12-25T12:01:19.920Z,7.08
2018-12-25T12:03:56.657Z,7.21
2018-12-25T12:06:26.249Z,7.05
2018-12-25T12:08:57.903Z,7.04
2018-12-25T12:11:27.256Z,7.04
2018-12-25T12:14:04.209Z,6.99
2018-12-25T12:16:33.594Z,6.72
2018-12-25T12:19:03.009Z,6.82
2018-12-25T12:21:35.239Z,6.71
2018-12-25T12:24:07.447Z,6.93
2018-12-25T12:26:36.797Z,6.80
2018-12-25T12:29:09.534Z,6.88
2018-12-25T12:31:43.188Z,6.91
2018-12-25T12:34:10.053Z,6.87
2018-12-25T12:36:39.351Z,6.79
2018-12-25T12:39:11.468Z,6.80
2018-12-25T12:41:41.179Z,6.86
2018-12-25T12:44:10.500Z,6.86
2018-12-25T12:46:39.844Z,6.71
2018-12-25T12:49:09.110Z,6.68
2018-12-25T12:51:38.482Z,6.76
2018-12-25T12:54:08.217Z,6.79
2018-12-25T12:56:37.550Z,6.91
2018-12-25T12:59:06.900Z,6.85
2018-12-25T13:01:36.585Z,6.93
2018-12-25T13:04:12.074Z,6.91
2018-12-25T13:06:41.480Z,6.97
2018-12-25T13:09:11.115Z,6.92
2018-12-25T13:11:40.432Z,7.07
2018-12-25T13:14:09.899Z,7.14
2018-12-25T13:16:39.683Z,7.23
2018-12-25T13:19:09.001Z,7.17
2018-12-25T13:21:38.392Z,7.18
2018-12-25T13:24:08.018Z,7.32
2018-12-25T13:26:37.324Z,7.43
2018-12-25T13:29:06.694Z,7.47
2018-12-25T13:31:36.303Z,7.60
2018-12-25T13:34:08.395Z,7.63
2018-12-25T13:36:37.846Z,7.62
2018-12-25T13:39:08.317Z,7.54
2018-12-25T13:41:37.627Z,7.42
2018-12-25T13:44:07.068Z,7.35
2018-12-25T13:46:36.719Z,7.31
2018-12-25T13:49:06.112Z,7.42
2018-12-25T13:51:35.430Z,7.42
2018-12-25T13:54:08.083Z,7.26
2018-12-25T13:56:37.436Z,7.28
2018-12-25T13:59:06.794Z,7.19
2018-12-25T14:01:36.376Z,7.15
2018-12-25T14:04:09.185Z,7.12
2018-12-25T14:06:38.558Z,7.12
2018-12-25T14:09:08.838Z,7.09
2018-12-25T14:11:38.179Z,7.14
2018-12-25T14:14:12.626Z,7.21
2018-12-25T14:16:54.893Z,7.07
2018-12-25T14:19:27.051Z,7.17
2018-12-25T14:21:56.701Z,7.23
2018-12-25T14:24:33.307Z,7.03
2018-12-25T14:27:02.996Z,6.96
2018-12-25T14:29:32.415Z,6.97
2018-12-25T14:32:03.015Z,6.91
2018-12-25T14:34:32.624Z,6.92
2018-12-25T14:37:02.135Z,6.88
2018-12-25T14:39:34.694Z,6.90
2018-12-25T14:42:07.367Z,6.98
2018-12-25T14:44:36.706Z,7.01
2018-12-25T14:47:06.095Z,6.89
2018-12-25T14:49:40.540Z,6.73
2018-12-25T14:52:09.916Z,6.67
2018-12-25T14:54:39.272Z,6.59
2018-12-25T14:57:15.828Z,6.54
2018-12-25T14:59:45.187Z,6.64
2018-12-25T15:02:17.521Z,6.66
2018-12-25T15:04:46.869Z,6.66
2018-12-25T15:07:22.277Z,6.61
2018-12-25T15:09:51.604Z,6.62
2018-12-25T15:12:24.118Z,6.61
2018-12-25T15:14:54.399Z,6.56
2018-12-25T15:17:26.775Z,6.59
2018-12-25T15:19:56.385Z,6.53
2018-12-25T15:22:25.714Z,6.50
2018-12-25T15:24:56.202Z,6.50
2018-12-25T15:27:25.876Z,6.41
2018-12-25T15:29:55.195Z,6.42
2018-12-25T15:32:24.730Z,6.44
2018-12-25T15:34:55.881Z,6.43
2018-12-25T15:37:25.258Z,6.37
2018-12-25T15:39:54.656Z,6.33
2018-12-25T15:42:24.343Z,6.29
2018-12-25T15:44:54.070Z,6.24
2018-12-25T15:47:25.686Z,6.18
2018-12-25T15:49:55.341Z,6.14
2018-12-25T15:52:24.705Z,6.17
2018-12-25T15:54:56.976Z,6.13
2018-12-25T15:57:27.852Z,6.06
2018-12-25T15:59:57.229Z,6.05
2018-12-25T16:02:26.705Z,5.97
2018-12-25T16:04:56.348Z,5.93
2018-12-25T16:07:28.903Z,5.82
2018-12-25T16:09:58.382Z,5.75
2018-12-25T16:12:28.001Z,5.72
2018-12-25T16:14:57.419Z,5.71
2018-12-25T16:17:26.787Z,5.73
2018-12-25T16:19:58.546Z,5.59
2018-12-25T16:22:28.039Z,5.60
2018-12-25T16:25:00.599Z,5.53
2018-12-25T16:27:30.032Z,5.58
2018-12-25T16:29:59.470Z,5.47
2018-12-25T16:32:28.814Z,5.46
2018-12-25T16:34:58.204Z,5.48
2018-12-25T16:37:27.855Z,5.39
2018-12-25T16:39:57.192Z,5.34
2018-12-25T16:42:26.498Z,5.35
2018-12-25T16:44:59.378Z,5.31
2018-12-25T16:47:28.703Z,5.35
2018-12-25T16:49:58.018Z,5.41
2018-12-25T16:52:27.660Z,5.37
2018-12-25T16:54:57.035Z,5.36
2018-12-25T16:57:26.313Z,5.38
2018-12-25T16:59:55.642Z,5.21
2018-12-25T17:02:24.997Z,5.25
2018-12-25T17:04:54.697Z,5.16
2018-12-25T17:07:24.014Z,5.26
2018-12-25T17:09:56.149Z,5.19
2018-12-25T17:12:25.479Z,5.23
2018-12-25T17:14:54.790Z,5.09
2018-12-25T17:17:27.442Z,5.12
2018-12-25T17:19:59.798Z,5.08
2018-12-25T17:22:29.151Z,5.04
2018-12-25T17:25:01.899Z,5.06
2018-12-25T17:27:31.234Z,5.08
2018-12-25T17:30:00.591Z,5.12
2018-12-25T17:32:30.440Z,5.16
2018-12-25T17:35:02.131Z,5.13
2018-12-25T17:37:31.453Z,5.10
2018-12-25T17:40:01.135Z,5.14
2018-12-25T17:42:30.466Z,5.12
2018-12-25T17:45:01.600Z,5.10
2018-12-25T17:47:31.370Z,5.09
2018-12-25T17:50:06.759Z,5.08
2018-12-25T17:52:36.130Z,5.08
2018-12-25T17:55:08.968Z,5.10
2018-12-25T17:57:38.307Z,5.10
2018-12-25T18:00:07.782Z,5.04
2018-12-25T18:02:37.434Z,5.08
2018-12-25T18:05:11.772Z,5.01
2018-12-25T18:07:38.659Z,5.05
2018-12-25T18:10:08.309Z,5.03
2018-12-25T18:12:37.635Z,5.03
2018-12-25T18:15:10.351Z,5.01
2018-12-25T18:17:40.005Z,5.04
2018-12-25T18:20:12.551Z,5.00
2018-12-25T18:22:41.984Z,4.88
2018-12-25T18:25:17.412Z,4.92
2018-12-25T18:27:46.759Z,4.94
2018-12-25T18:30:19.382Z,4.88
2018-12-25T18:32:48.837Z,4.84
2018-12-25T18:35:20.959Z,4.86
2018-12-25T18:37:50.795Z,4.87
2018-12-25T18:40:22.943Z,4.87
2018-12-25T18:42:52.648Z,4.85
2018-12-25T18:45:22.765Z,4.86
2018-12-25T18:47:52.140Z,4.79
2018-12-25T18:50:21.783Z,4.70
2018-12-25T18:52:58.140Z,4.71
2018-12-25T18:55:27.616Z,4.57
2018-12-25T18:58:00.772Z,4.58
2018-12-25T19:00:32.632Z,4.60
2018-12-25T19:03:02.105Z,4.61
2018-12-25T19:05:32.099Z,4.54
2018-12-25T19:08:09.173Z,4.49
2018-12-25T19:10:41.443Z,4.53
2018-12-25T19:13:10.942Z,4.50
2018-12-25T19:15:44.842Z,4.48
2018-12-25T19:18:14.579Z,4.43
2018-12-25T19:20:43.988Z,4.41
2018-12-25T19:23:14.646Z,4.31
2018-12-25T19:25:44.150Z,4.41
2018-12-25T19:28:13.514Z,4.40
2018-12-25T19:30:43.124Z,4.32
2018-12-25T19:33:12.532Z,4.34
2018-12-25T19:35:42.368Z,4.32
2018-12-25T19:38:12.155Z,4.27
2018-12-25T19:40:48.747Z,4.26
2018-12-25T19:43:24.430Z,4.22
2018-12-25T19:45:49.652Z,4.20
2018-12-25T19:48:19.215Z,4.25
2018-12-25T19:50:49.292Z,4.23
2018-12-25T19:53:19.460Z,4.19
2018-12-25T19:55:49.589Z,4.19
2018-12-25T19:58:19.872Z,4.23
2018-12-25T20:00:52.887Z,4.18
2018-12-25T20:04:10.350Z,4.15
2018-12-25T20:07:16.400Z,4.13
2018-12-25T20:10:12.999Z,4.13
2018-12-25T20:13:41.725Z,4.12
2018-12-25T20:16:50.358Z,4.10
2018-12-25T20:20:05.636Z,4.07
2018-12-25T20:23:09.947Z,4.03
2018-12-25T20:26:29.715Z,4.07
2018-12-25T20:29:42.451Z,4.07
2018-12-25T20:32:47.466Z,4.00
2018-12-25T20:35:47.176Z,3.90
2018-12-25T20:39:02.242Z,3.90
2018-12-25T20:42:18.272Z,3.93
2018-12-25T20:45:36.034Z,3.85
2018-12-25T20:48:46.366Z,3.91
2018-12-25T20:52:07.257Z,3.84
2018-12-25T20:55:13.883Z,3.81
2018-12-25T20:58:17.563Z,3.73
2018-12-25T21:01:38.722Z,3.75
2018-12-25T21:04:48.057Z,3.78
2018-12-25T21:08:08.320Z,3.77
2018-12-25T21:11:31.733Z,3.77
2018-12-25T21:14:38.734Z,3.77
2018-12-25T21:17:46.320Z,3.71
2018-12-25T21:20:55.771Z,3.71
2018-12-25T21:24:00.506Z,3.64
2018-12-25T21:27:05.657Z,3.64
2018-12-25T21:29:35.204Z,3.63
2018-12-25T21:32:07.805Z,3.73
2018-12-25T21:34:37.951Z,3.72
2018-12-25T21:37:12.331Z,3.72
2018-12-25T21:39:42.238Z,3.57
2018-12-25T21:42:15.276Z,3.68
2018-12-25T21:44:45.081Z,3.58
2018-12-25T21:47:15.305Z,3.59
2018-12-25T21:49:56.600Z,3.61
2018-12-25T21:52:26.615Z,3.61
2018-12-25T21:54:56.241Z,3.63
2018-12-25T21:57:26.323Z,3.64
2018-12-25T21:59:56.136Z,3.65
2018-12-25T22:02:28.531Z,3.63
2018-12-25T22:04:58.064Z,3.57
2018-12-25T22:07:30.616Z,3.59
2018-12-25T22:10:00.189Z,3.43
2018-12-25T22:12:29.606Z,3.43
2018-12-25T22:14:59.244Z,3.52
2018-12-25T22:17:28.592Z,3.52
2018-12-25T22:19:58.043Z,3.38
2018-12-25T22:22:27.761Z,3.43
2018-12-25T22:24:59.909Z,3.42
2018-12-25T22:27:29.267Z,3.51
2018-12-25T22:29:59.081Z,3.47
2018-12-25T22:32:31.418Z,3.44
2018-12-25T22:35:01.057Z,3.42
2018-12-25T22:37:38.236Z,3.42
2018-12-25T22:40:07.615Z,3.38
2018-12-25T22:42:37.166Z,3.39
2018-12-25T22:45:06.667Z,3.29
2018-12-25T22:47:36.103Z,3.29
2018-12-25T22:50:08.530Z,3.32
2018-12-25T22:52:37.891Z,3.15
2018-12-25T22:55:08.629Z,3.15
2018-12-25T22:57:42.668Z,3.06
2018-12-25T23:00:13.602Z,3.05
2018-12-25T23:02:42.965Z,2.96
2018-12-25T23:05:12.675Z,2.83
2018-12-25T23:07:48.836Z,3.05
2018-12-25T23:10:18.576Z,3.05
2018-12-25T23:12:47.973Z,2.91
2018-12-25T23:15:17.406Z,2.78
2018-12-25T23:17:47.051Z,2.78
2018-12-25T23:20:16.417Z,2.80
2018-12-25T23:22:45.807Z,2.79
2018-12-25T23:25:15.477Z,2.79
2018-12-25T23:27:44.876Z,2.75
2018-12-25T23:30:17.173Z,2.62
2018-12-25T23:32:46.836Z,2.62
2018-12-25T23:35:18.359Z,2.68
2018-12-25T23:37:47.778Z,2.71
2018-12-25T23:40:23.255Z,2.71
2018-12-25T23:42:52.720Z,2.77
2018-12-25T23:45:25.466Z,2.70
2018-12-25T23:47:54.846Z,2.62
2018-12-25T23:50:24.231Z,2.63
2018-12-25T23:52:58.254Z,2.55
2018-12-25T23:55:24.962Z,2.51
2018-12-25T23:57:57.431Z,2.47
